Time;durP1;ratioP1;P1;durP2;ratioP2;P2;SDS_P1;SDS_P2;PMS_P1;PMS_P2;Temp;Humidity;BMP_temperature;BMP_pressure;BME280_temperature;BME280_humidity;BME280_pressure;Samples;Min_cycle;Max_cycle;Signal;HPM_P1;HPM_P2
2024/02/12 00:01:58;;;;;;;4.63;2.53;;;8.10;99.90;;;;;;6280026;22;20020;-86
2024/02/12 00:04:29;;;;;;;4.28;2.28;;;8.10;99.90;;;;;;6254390;22;20015;-85
2024/02/12 00:06:58;;;;;;;4.18;2.35;;;8.10;99.90;;;;;;6254166;22;20018;-85
2024/02/12 00:09:25;;;;;;;6.32;2.25;;;8.00;99.90;;;;;;6253751;22;20440;-85
2024/02/12 00:11:51;;;;;;;6.93;2.97;;;8.00;99.90;;;;;;6279487;22;20015;-85
2024/02/12 00:14:17;;;;;;;5.47;2.47;;;8.00;99.90;;;;;;6253680;22;20004;-86
2024/02/12 00:16:43;;;;;;;5.70;3.08;;;7.90;99.90;;;;;;6279577;22;20436;-86
2024/02/12 00:19:09;;;;;;;4.85;2.03;;;7.90;99.90;;;;;;6277930;22;20033;-85
2024/02/12 00:21:36;;;;;;;4.63;2.45;;;7.80;99.90;;;;;;6279852;22;20084;-85
2024/02/12 00:24:02;;;;;;;4.72;2.47;;;7.80;99.90;;;;;;6279766;22;20003;-85
2024/02/12 00:26:28;;;;;;;5.03;2.65;;;7.80;99.90;;;;;;6278962;22;20378;-86
2024/02/12 00:28:54;;;;;;;6.00;3.20;;;7.70;99.90;;;;;;6279351;22;20008;-85
2024/02/12 00:31:21;;;;;;;7.93;4.57;;;7.70;99.90;;;;;;6279059;22;20007;-86
2024/02/12 00:33:48;;;;;;;9.38;4.55;;;7.60;99.90;;;;;;6253997;22;20029;-86
2024/02/12 00:36:17;;;;;;;11.63;5.95;;;7.70;99.90;;;;;;6306517;22;20007;-85
2024/02/12 00:38:43;;;;;;;11.77;6.20;;;7.70;99.90;;;;;;6254259;22;20052;-85
2024/02/12 00:41:20;;;;;;;10.68;7.07;;;7.70;99.90;;;;;;6253544;22;20440;-85
2024/02/12 00:43:46;;;;;;;12.77;8.57;;;7.60;99.90;;;;;;6253674;22;20011;-85
2024/02/12 00:46:12;;;;;;;11.93;7.57;;;7.60;99.90;;;;;;6304785;22;19999;-84
2024/02/12 00:48:38;;;;;;;13.70;7.82;;;7.60;99.90;;;;;;6252498;22;20094;-85
2024/02/12 00:51:05;;;;;;;13.73;7.93;;;7.60;99.90;;;;;;6305559;22;20034;-85
2024/02/12 00:53:31;;;;;;;17.30;9.50;;;7.50;99.90;;;;;;6252304;22;20018;-85
2024/02/12 00:55:57;;;;;;;16.33;10.35;;;7.50;99.90;;;;;;6252889;22;20045;-85
2024/02/12 00:58:23;;;;;;;19.77;11.90;;;7.50;99.90;;;;;;6303764;22;20052;-85
2024/02/12 01:00:50;;;;;;;16.48;10.32;;;7.50;99.90;;;;;;6278274;22;20023;-85
2024/02/12 01:03:16;;;;;;;20.23;11.68;;;7.50;99.90;;;;;;6252025;22;20376;-85
2024/02/12 01:05:43;;;;;;;17.05;9.80;;;7.40;99.90;;;;;;6278032;22;20003;-85
2024/02/12 01:08:09;;;;;;;29.05;14.52;;;7.50;99.90;;;;;;6252301;22;20014;-85
2024/02/12 01:10:35;;;;;;;25.33;13.38;;;7.50;99.90;;;;;;6305288;22;20000;-85
2024/02/12 01:13:01;;;;;;;23.30;13.82;;;7.40;99.90;;;;;;6252012;22;20011;-86
2024/02/12 01:15:27;;;;;;;20.23;11.88;;;7.40;99.90;;;;;;6278000;22;20046;-86
2024/02/12 01:17:55;;;;;;;19.05;10.90;;;7.40;99.90;;;;;;6277557;22;20008;-85
2024/02/12 01:20:22;;;;;;;20.65;12.18;;;7.40;99.90;;;;;;6252215;22;20003;-85
2024/02/12 01:22:52;;;;;;;20.90;12.65;;;7.50;99.90;;;;;;6277595;22;20014;-85
2024/02/12 01:25:18;;;;;;;25.15;14.80;;;7.60;99.90;;;;;;6274490;22;20440;-86
2024/02/12 01:27:45;;;;;;;25.52;14.27;;;7.60;99.90;;;;;;6252226;22;20013;-85
2024/02/12 01:30:12;;;;;;;28.98;15.85;;;7.50;99.90;;;;;;6304933;22;20034;-85
2024/02/12 01:32:37;;;;;;;29.40;16.40;;;7.60;99.90;;;;;;6305393;22;20011;-85
2024/02/12 01:35:05;;;;;;;26.05;15.95;;;7.60;99.90;;;;;;6277363;22;20002;-84
2024/02/12 01:37:32;;;;;;;26.02;15.68;;;7.60;99.90;;;;;;6303396;22;20010;-85
2024/02/12 01:39:58;;;;;;;28.20;16.60;;;7.60;99.90;;;;;;6252262;22;20324;-85
2024/02/12 01:42:24;;;;;;;31.10;17.90;;;7.60;99.90;;;;;;6303423;22;20003;-84
2024/02/12 01:45:13;;;;;;;29.77;17.65;;;7.60;99.90;;;;;;6277531;22;20056;-86
2024/02/12 01:47:41;;;;;;;22.52;14.75;;;7.70;99.90;;;;;;6203755;22;1112230;-85
2024/02/12 01:50:07;;;;;;;19.02;14.10;;;7.70;99.90;;;;;;6278694;22;20007;-85
2024/02/12 01:52:33;;;;;;;24.25;13.57;;;7.70;99.90;;;;;;6253200;22;20015;-85
2024/02/12 01:55:02;;;;;;;19.48;11.27;;;7.80;99.90;;;;;;6278800;22;20082;-86
2024/02/12 01:57:30;;;;;;;24.77;13.50;;;7.80;99.90;;;;;;6278697;22;20035;-86
2024/02/12 01:59:57;;;;;;;26.15;16.95;;;7.80;99.90;;;;;;6279211;22;20018;-85
2024/02/12 02:02:24;;;;;;;22.00;13.82;;;7.80;99.90;;;;;;6278737;22;20011;-86
2024/02/12 02:04:53;;;;;;;17.73;10.85;;;7.70;99.90;;;;;;6279140;22;20355;-86
2024/02/12 02:07:19;;;;;;;16.70;9.82;;;7.70;99.90;;;;;;6279113;22;20034;-84
2024/02/12 02:09:50;;;;;;;16.50;9.27;;;7.70;99.90;;;;;;6278832;22;19999;-86
2024/02/12 02:12:16;;;;;;;24.10;14.43;;;7.80;99.90;;;;;;6305954;22;20015;-85
2024/02/12 02:14:44;;;;;;;27.55;16.27;;;7.80;99.90;;;;;;6278946;22;20003;-85
2024/02/12 02:17:10;;;;;;;25.13;14.65;;;7.90;99.90;;;;;;6278790;22;20083;-86
2024/02/12 02:19:38;;;;;;;18.88;12.20;;;7.80;99.90;;;;;;6280584;22;20007;-85
2024/02/12 02:22:04;;;;;;;20.90;13.15;;;7.80;99.90;;;;;;6308125;22;20509;-87
2024/02/12 02:24:30;;;;;;;18.75;10.88;;;7.80;99.90;;;;;;6280399;22;20007;-86
2024/02/12 02:26:55;;;;;;;17.13;9.30;;;7.80;99.90;;;;;;6280864;22;20064;-86
2024/02/12 02:29:21;;;;;;;19.38;10.13;;;7.80;99.90;;;;;;6280730;22;20003;-85
2024/02/12 02:31:47;;;;;;;17.67;10.55;;;7.80;99.90;;;;;;6281089;22;20022;-86
2024/02/12 02:34:13;;;;;;;18.63;11.02;;;7.80;99.90;;;;;;6254818;22;20004;-85
2024/02/12 02:36:42;;;;;;;19.70;11.73;;;7.80;99.90;;;;;;6306823;22;20005;-86
2024/02/12 02:39:08;;;;;;;16.00;9.50;;;7.80;99.90;;;;;;6280358;22;20007;-86
2024/02/12 02:41:34;;;;;;;20.38;10.50;;;7.80;99.90;;;;;;6280300;22;20082;-86
2024/02/12 02:43:59;;;;;;;18.17;11.63;;;7.80;99.90;;;;;;6254271;22;20037;-85
2024/02/12 02:46:28;;;;;;;18.52;10.18;;;7.90;99.90;;;;;;6254970;22;20345;-85
2024/02/12 02:48:57;;;;;;;21.20;11.43;;;7.80;99.90;;;;;;6280066;22;20094;-86
2024/02/12 02:51:30;;;;;;;27.15;15.07;;;7.80;99.90;;;;;;6253908;22;20019;-85
2024/02/12 02:53:56;;;;;;;25.50;15.45;;;7.80;99.90;;;;;;6254191;22;20008;-85
2024/02/12 02:56:22;;;;;;;32.75;14.15;;;7.90;99.90;;;;;;6280126;22;20007;-85
2024/02/12 02:58:50;;;;;;;25.55;15.02;;;7.90;99.90;;;;;;6280568;22;20497;-84
2024/02/12 03:01:19;;;;;;;24.90;14.13;;;7.80;99.90;;;;;;6280602;22;20026;-85
2024/02/12 03:03:50;;;;;;;27.00;16.43;;;7.90;99.90;;;;;;6280568;22;20522;-85
2024/02/12 03:06:19;;;;;;;29.00;16.38;;;7.90;99.90;;;;;;6254732;22;20043;-85
2024/02/12 03:08:48;;;;;;;27.92;16.60;;;8.00;99.90;;;;;;6254963;22;20007;-86
2024/02/12 03:11:23;;;;;;;30.38;17.58;;;8.00;99.90;;;;;;6254533;22;20496;-84
2024/02/12 03:13:52;;;;;;;31.15;17.20;;;8.00;99.90;;;;;;6253393;22;20133;-85
2024/02/12 03:16:18;;;;;;;34.70;19.67;;;8.00;99.90;;;;;;6279869;22;20007;-84
2024/02/12 03:18:46;;;;;;;42.70;22.95;;;8.00;99.90;;;;;;6280466;22;20057;-85
2024/02/12 03:21:12;;;;;;;37.30;22.80;;;8.00;99.90;;;;;;6280238;22;20003;-85
2024/02/12 03:23:38;;;;;;;44.08;25.65;;;8.00;99.90;;;;;;6279991;22;20007;-85
2024/02/12 03:26:08;;;;;;;44.80;25.45;;;7.90;99.90;;;;;;6254726;22;20340;-85
2024/02/12 03:28:35;;;;;;;45.55;22.52;;;8.00;99.90;;;;;;6280440;22;20428;-86
2024/02/12 03:31:01;;;;;;;40.70;23.30;;;7.90;99.90;;;;;;6279974;22;20027;-86
2024/02/12 03:33:27;;;;;;;42.03;24.13;;;7.90;99.90;;;;;;6279706;22;20011;-85
2024/02/12 03:35:52;;;;;;;41.80;25.35;;;7.80;99.90;;;;;;6307177;22;19999;-85
2024/02/12 03:38:18;;;;;;;38.30;23.42;;;7.80;99.90;;;;;;6280346;22;20006;-85
2024/02/12 03:40:44;;;;;;;41.92;23.77;;;7.80;99.90;;;;;;6280203;22;20007;-86
2024/02/12 03:43:10;;;;;;;34.28;20.40;;;7.80;99.90;;;;;;6280126;22;20014;-85
2024/02/12 03:45:36;;;;;;;45.45;24.90;;;7.80;99.90;;;;;;6280071;22;20007;-85
2024/02/12 03:59:50;;;;;;;37.38;23.98;;;7.80;99.90;;;;;;6306870;22;20137;-85
2024/02/12 04:01:49;;;;;;;37.40;21.55;;;7.80;99.90;;;;;;6307248;22;20010;-85
2024/02/12 04:04:15;;;;;;;34.60;21.75;;;7.70;99.90;;;;;;6279757;22;20007;-85
2024/02/12 04:06:40;;;;;;;31.42;19.00;;;7.70;99.90;;;;;;6279979;22;20003;-87
2024/02/12 04:09:08;;;;;;;32.03;19.27;;;7.70;99.90;;;;;;6280118;22;20003;-85
2024/02/12 04:11:42;;;;;;;28.23;16.88;;;7.60;99.90;;;;;;6279414;22;20011;-85
2024/02/12 04:14:09;;;;;;;31.17;17.83;;;7.50;99.90;;;;;;6279807;22;20098;-86
2024/02/12 04:16:39;;;;;;;29.58;17.50;;;7.50;99.90;;;;;;6307112;22;20007;-86
2024/02/12 04:19:05;;;;;;;32.47;18.30;;;7.50;99.90;;;;;;6307080;22;20420;-86
2024/02/12 04:21:32;;;;;;;25.48;14.13;;;7.50;99.90;;;;;;6279413;22;20430;-86
2024/02/12 04:24:03;;;;;;;24.73;13.73;;;7.40;99.90;;;;;;6280044;22;20053;-86
2024/02/12 04:26:30;;;;;;;24.52;12.10;;;7.40;99.90;;;;;;6279650;22;20391;-85
2024/02/12 04:28:58;;;;;;;24.65;13.10;;;7.30;99.90;;;;;;6254338;22;20431;-86
2024/02/12 04:31:26;;;;;;;17.27;9.93;;;7.20;99.90;;;;;;6254391;22;20022;-86
2024/02/12 04:33:53;;;;;;;17.75;10.55;;;7.10;99.90;;;;;;6279671;22;20010;-85
2024/02/12 04:36:19;;;;;;;16.52;10.27;;;7.00;99.90;;;;;;6253596;22;20026;-86
2024/02/12 04:38:45;;;;;;;19.10;10.45;;;7.00;99.90;;;;;;6279716;22;20424;-85
2024/02/12 04:41:13;;;;;;;16.20;9.23;;;7.00;99.90;;;;;;6278029;22;20019;-86
2024/02/12 04:43:40;;;;;;;20.60;11.43;;;7.00;99.90;;;;;;6253118;22;20324;-85
2024/02/12 04:46:05;;;;;;;20.42;11.73;;;7.10;99.90;;;;;;6253977;22;20007;-86
2024/02/12 04:48:31;;;;;;;15.63;8.57;;;7.10;99.90;;;;;;6253661;22;20052;-86
2024/02/12 04:50:57;;;;;;;16.52;8.88;;;7.10;99.90;;;;;;6253411;22;20011;-85
2024/02/12 04:53:23;;;;;;;20.75;10.82;;;7.00;99.90;;;;;;6305229;22;20007;-86
2024/02/12 04:55:48;;;;;;;20.65;11.80;;;7.00;99.90;;;;;;6253908;22;20000;-85
2024/02/12 04:58:14;;;;;;;17.83;10.27;;;6.90;99.90;;;;;;6254181;22;20027;-86
2024/02/12 05:00:40;;;;;;;16.27;9.88;;;6.80;99.90;;;;;;6253757;22;20222;-85
2024/02/12 05:03:07;;;;;;;17.48;8.95;;;6.90;99.90;;;;;;6306574;22;20011;-85
2024/02/12 05:05:34;;;;;;;17.40;8.48;;;6.90;99.90;;;;;;6306247;22;20053;-85
2024/02/12 05:08:06;;;;;;;15.07;8.10;;;6.80;99.90;;;;;;6279641;22;20011;-85
2024/02/12 05:10:31;;;;;;;22.13;10.52;;;6.80;99.90;;;;;;6305842;22;20016;-87
2024/02/12 05:12:57;;;;;;;17.67;9.57;;;6.70;99.90;;;;;;6253097;22;20362;-85
2024/02/12 05:15:24;;;;;;;22.20;10.20;;;6.60;99.90;;;;;;6279316;22;19999;-86
2024/02/12 05:17:55;;;;;;;16.63;9.35;;;6.50;99.90;;;;;;6279442;22;20037;-86
2024/02/12 05:23:14;;;;;;;19.88;8.43;;;6.20;99.90;;;;;;6232902;22;20014;-85
2024/02/12 05:25:39;;;;;;;14.95;8.25;;;6.20;99.90;;;;;;6279385;22;20011;-86
2024/02/12 05:28:05;;;;;;;18.05;8.93;;;6.10;99.90;;;;;;6279211;22;20030;-86
2024/02/12 05:30:34;;;;;;;18.58;8.90;;;6.10;99.90;;;;;;6278567;22;20011;-86
2024/02/12 05:33:00;;;;;;;17.20;8.10;;;6.00;99.90;;;;;;6278433;22;20019;-87
2024/02/12 05:35:26;;;;;;;19.50;8.55;;;6.00;99.90;;;;;;6251247;22;20007;-87
2024/02/12 05:37:52;;;;;;;14.98;7.47;;;6.20;99.90;;;;;;6279651;22;20018;-86
2024/02/12 05:40:20;;;;;;;17.50;8.02;;;6.20;99.90;;;;;;6279394;22;20010;-87
2024/02/12 05:42:46;;;;;;;17.17;8.75;;;6.30;99.90;;;;;;6279426;22;20032;-86
2024/02/12 05:48:59;;;;;;;23.88;11.32;;;6.30;99.90;;;;;;6253185;22;20073;-89
2024/02/12 05:51:28;;;;;;;23.15;12.25;;;6.30;99.90;;;;;;6275905;22;20038;-89
2024/02/12 05:53:54;;;;;;;19.75;10.00;;;6.10;99.90;;;;;;6277308;22;20290;-88
2024/02/12 05:56:22;;;;;;;18.38;9.05;;;6.10;99.90;;;;;;6304385;22;20034;-87
2024/02/12 05:58:49;;;;;;;20.13;10.30;;;6.10;99.90;;;;;;6278866;22;20015;-88
2024/02/12 06:01:15;;;;;;;19.05;9.75;;;5.90;99.90;;;;;;6279090;22;20007;-89
2024/02/12 06:03:40;;;;;;;20.25;9.65;;;5.80;99.90;;;;;;6278034;22;20007;-89
2024/02/12 06:06:06;;;;;;;20.27;10.32;;;5.80;99.90;;;;;;6304122;22;20349;-88
2024/02/12 06:08:35;;;;;;;19.70;9.95;;;5.80;99.90;;;;;;6278084;22;20014;-89
2024/02/12 06:11:04;;;;;;;21.13;10.18;;;5.80;99.90;;;;;;6304965;22;20096;-88
2024/02/12 06:13:29;;;;;;;19.98;10.07;;;5.80;99.90;;;;;;6278450;22;20007;-88
2024/02/12 06:15:55;;;;;;;19.70;10.02;;;5.80;99.90;;;;;;6278356;22;20004;-88
2024/02/12 06:18:21;;;;;;;19.95;9.55;;;5.80;99.90;;;;;;6304816;22;20006;-88
2024/02/12 06:20:48;;;;;;;19.67;9.82;;;5.80;99.90;;;;;;6304969;22;20086;-89
2024/02/12 06:23:14;;;;;;;18.73;9.57;;;5.70;99.90;;;;;;6304577;22;20007;-89
2024/02/12 06:25:40;;;;;;;19.05;9.60;;;5.60;99.90;;;;;;6304108;22;20007;-89
2024/02/12 06:28:09;;;;;;;19.27;8.85;;;5.60;99.90;;;;;;6277787;22;20010;-89
2024/02/12 06:30:35;;;;;;;18.35;8.80;;;5.60;99.90;;;;;;6278128;22;20020;-88
2024/02/12 06:33:03;;;;;;;17.85;9.18;;;5.70;99.90;;;;;;6304035;22;20011;-88
2024/02/12 06:35:29;;;;;;;19.23;9.77;;;5.70;99.90;;;;;;6303359;22;20649;-89
2024/02/12 06:37:55;;;;;;;19.77;8.85;;;5.80;99.90;;;;;;6303624;22;20009;-88
2024/02/12 06:40:21;;;;;;;21.08;9.93;;;5.80;99.90;;;;;;6277884;22;20132;-89
2024/02/12 06:42:47;;;;;;;18.10;8.75;;;5.80;99.90;;;;;;6278196;22;20061;-88
2024/02/12 06:45:14;;;;;;;17.50;9.15;;;5.80;99.90;;;;;;6277600;22;20006;-89
2024/02/12 06:47:41;;;;;;;16.73;8.25;;;5.90;99.90;;;;;;6277583;22;20031;-88
2024/02/12 06:50:07;;;;;;;18.83;9.60;;;5.90;99.90;;;;;;6303538;22;20451;-89
2024/02/12 06:52:33;;;;;;;19.35;8.98;;;6.00;99.90;;;;;;6329744;22;20455;-89
2024/02/12 06:54:59;;;;;;;18.88;9.55;;;6.00;99.90;;;;;;6303445;22;20004;-88
2024/02/12 06:57:25;;;;;;;19.60;8.77;;;6.10;99.90;;;;;;6303321;22;20082;-89
2024/02/12 06:59:50;;;;;;;21.25;9.65;;;6.10;99.90;;;;;;6303500;22;20003;-88
2024/02/12 07:02:17;;;;;;;19.15;9.70;;;6.20;99.90;;;;;;6276707;22;20003;-88
2024/02/12 07:04:43;;;;;;;21.33;8.98;;;6.20;99.90;;;;;;6277204;22;20007;-89
2024/02/12 07:07:09;;;;;;;20.33;9.90;;;6.20;99.90;;;;;;6277683;22;20088;-89
2024/02/12 07:09:35;;;;;;;17.25;9.07;;;6.30;99.90;;;;;;6303298;22;20003;-88
2024/02/12 07:12:01;;;;;;;22.63;10.07;;;6.30;99.90;;;;;;6277794;22;20406;-88
2024/02/12 07:14:27;;;;;;;17.17;9.18;;;6.40;99.90;;;;;;6277378;22;20034;-89
2024/02/12 07:16:53;;;;;;;21.25;9.80;;;6.50;99.90;;;;;;6304160;22;20454;-89
2024/02/12 07:19:19;;;;;;;19.38;9.23;;;6.50;99.90;;;;;;6302990;22;20439;-88
2024/02/12 07:21:45;;;;;;;18.45;8.82;;;6.50;99.90;;;;;;6278863;22;20015;-89
2024/02/12 07:24:11;;;;;;;19.00;8.52;;;6.50;99.90;;;;;;6277864;22;20086;-88
2024/02/12 07:26:36;;;;;;;19.52;9.80;;;6.60;99.90;;;;;;6303497;22;20039;-89
2024/02/12 07:29:02;;;;;;;17.08;8.27;;;6.60;99.90;;;;;;6278304;22;20356;-88
2024/02/12 07:31:28;;;;;;;17.67;9.30;;;6.70;99.90;;;;;;6304061;22;20015;-89
2024/02/12 07:33:53;;;;;;;18.27;9.68;;;6.70;99.90;;;;;;6303648;22;20091;-88
2024/02/12 07:36:19;;;;;;;18.77;8.80;;;6.70;99.90;;;;;;6329632;22;20082;-88
2024/02/12 07:38:45;;;;;;;15.85;8.32;;;6.70;99.90;;;;;;6278380;22;20009;-88
2024/02/12 07:41:13;;;;;;;17.33;9.07;;;6.80;99.90;;;;;;6277864;22;20003;-88
2024/02/12 07:43:39;;;;;;;20.15;8.50;;;6.90;99.90;;;;;;6303356;22;20003;-88
2024/02/12 07:46:05;;;;;;;17.80;8.73;;;6.80;99.90;;;;;;6303829;22;20029;-89
2024/02/12 07:48:30;;;;;;;17.38;8.13;;;6.90;99.90;;;;;;6303625;22;20003;-89
2024/02/12 07:50:56;;;;;;;15.38;8.32;;;6.90;99.90;;;;;;6303530;22;20037;-88
2024/02/12 07:53:25;;;;;;;18.10;8.70;;;6.90;99.90;;;;;;6277513;22;20062;-89
2024/02/12 07:55:55;;;;;;;16.35;8.68;;;7.00;99.90;;;;;;6303914;22;20033;-89
2024/02/12 07:58:21;;;;;;;16.52;8.35;;;7.00;99.90;;;;;;6303250;22;20007;-88
2024/02/12 08:00:48;;;;;;;17.10;7.97;;;7.00;99.90;;;;;;6305007;22;20350;-88
2024/02/12 08:03:18;;;;;;;17.20;8.40;;;7.10;99.90;;;;;;6277498;22;20037;-88
2024/02/12 08:05:47;;;;;;;;;;;7.10;99.90;;;;;;6305215;22;20327;-88
2024/02/12 08:08:13;;;;;;;14.98;8.45;;;7.10;99.90;;;;;;6267511;22;19974;-89
2024/02/12 08:10:43;;;;;;;13.30;7.85;;;7.20;99.90;;;;;;6303141;22;20035;-88
2024/02/12 08:13:09;;;;;;;14.07;7.53;;;7.20;99.90;;;;;;6274771;22;20049;-89
2024/02/12 08:15:35;;;;;;;14.70;7.63;;;7.30;99.90;;;;;;6302574;22;20074;-89
2024/02/12 08:18:06;;;;;;;11.75;5.93;;;7.30;99.90;;;;;;6275196;22;20007;-88
2024/02/12 08:20:35;;;;;;;12.98;6.75;;;7.40;99.90;;;;;;6276711;22;20493;-88
2024/02/12 08:23:03;;;;;;;11.82;6.53;;;7.40;99.90;;;;;;6303770;22;20000;-88
2024/02/12 08:25:28;;;;;;;12.60;6.68;;;7.40;99.90;;;;;;6302021;22;20432;-89
2024/02/12 08:27:55;;;;;;;14.82;7.25;;;7.40;99.90;;;;;;6301343;22;20088;-88
2024/02/12 08:30:21;;;;;;;20.98;10.73;;;7.50;99.90;;;;;;6275614;22;20096;-88
2024/02/12 08:32:47;;;;;;;20.25;10.45;;;7.50;99.90;;;;;;6301992;22;20449;-88
2024/02/12 08:35:13;;;;;;;22.58;11.32;;;7.60;99.90;;;;;;6301090;22;20366;-88
2024/02/12 08:37:39;;;;;;;24.35;13.98;;;7.60;99.90;;;;;;6302798;22;20007;-88
2024/02/12 08:40:12;;;;;;;22.23;10.88;;;7.70;99.90;;;;;;6302129;22;20003;-88
2024/02/12 08:42:42;;;;;;;18.65;10.52;;;7.70;99.90;;;;;;6302340;22;20011;-88
2024/02/12 08:45:11;;;;;;;15.13;10.13;;;7.80;99.90;;;;;;6302061;22;20043;-89
2024/02/12 08:47:38;;;;;;;15.73;8.60;;;7.90;99.90;;;;;;6302494;22;20034;-88
2024/02/12 08:50:05;;;;;;;15.65;9.55;;;8.00;99.90;;;;;;6301504;22;20012;-88
2024/02/12 08:52:33;;;;;;;18.88;11.10;;;7.90;99.90;;;;;;6302380;22;20307;-88
2024/02/12 08:55:06;;;;;;;21.13;9.48;;;7.90;99.90;;;;;;6302165;22;20004;-88
2024/02/12 08:57:34;;;;;;;15.50;8.10;;;7.90;99.90;;;;;;6276208;22;20026;-88
2024/02/12 09:00:00;;;;;;;15.60;9.35;;;8.00;99.90;;;;;;6276533;22;20045;-88
2024/02/12 09:02:27;;;;;;;11.23;6.35;;;8.10;99.90;;;;;;6302095;22;20007;-89
2024/02/12 09:04:52;;;;;;;12.55;7.30;;;8.10;99.90;;;;;;6301682;22;20007;-88
2024/02/12 09:07:20;;;;;;;22.13;11.48;;;8.20;99.90;;;;;;6275901;22;20021;-88
2024/02/12 09:09:46;;;;;;;24.75;14.18;;;8.20;99.90;;;;;;6302179;22;20003;-88
2024/02/12 09:12:13;;;;;;;18.63;11.35;;;8.20;99.90;;;;;;6275791;22;20088;-88
2024/02/12 09:14:38;;;;;;;22.58;12.18;;;8.30;99.90;;;;;;6276597;22;20451;-88
2024/02/12 09:17:04;;;;;;;20.00;11.68;;;8.20;99.90;;;;;;6302251;22;20035;-89
2024/02/12 09:19:30;;;;;;;23.35;14.20;;;8.30;99.90;;;;;;6302007;22;20003;-88
2024/02/12 09:21:55;;;;;;;28.08;16.42;;;8.30;99.90;;;;;;6301619;22;20011;-88
2024/02/12 09:24:22;;;;;;;22.88;13.15;;;8.30;99.90;;;;;;6301954;22;20003;-89
2024/02/12 09:26:48;;;;;;;20.77;13.18;;;8.40;99.90;;;;;;6275723;22;20071;-89
2024/02/12 09:29:14;;;;;;;19.80;11.48;;;8.40;99.90;;;;;;6303386;22;20118;-89
2024/02/12 09:31:39;;;;;;;20.73;11.60;;;8.40;99.90;;;;;;6277929;22;20089;-90
2024/02/12 09:34:06;;;;;;;18.52;11.27;;;8.50;99.90;;;;;;6304152;22;20457;-89
2024/02/12 09:36:32;;;;;;;28.20;16.73;;;8.60;99.90;;;;;;6304006;22;20007;-89
2024/02/12 09:38:59;;;;;;;31.58;18.60;;;8.50;99.90;;;;;;6278342;22;20094;-89
2024/02/12 09:41:26;;;;;;;42.70;24.10;;;8.60;99.90;;;;;;6278156;22;20003;-91
2024/02/12 09:43:57;;;;;;;46.25;28.95;;;8.50;99.90;;;;;;6278437;22;20038;-90
2024/02/12 09:46:22;;;;;;;39.85;22.20;;;8.50;99.90;;;;;;6278253;22;20011;-89
2024/02/12 09:48:49;;;;;;;36.53;23.20;;;8.60;99.90;;;;;;6278229;22;20007;-91
2024/02/12 09:51:16;;;;;;;37.17;21.38;;;8.60;99.90;;;;;;6278062;22;20011;-90
2024/02/12 09:53:43;;;;;;;39.97;23.13;;;8.60;99.90;;;;;;6277973;22;20015;-91
2024/02/12 09:56:11;;;;;;;43.63;24.63;;;8.50;99.90;;;;;;6279235;22;20003;-93
2024/02/12 09:58:37;;;;;;;37.97;22.13;;;8.40;99.90;;;;;;6304256;22;20481;-91
2024/02/12 10:01:07;;;;;;;37.53;23.58;;;8.40;99.90;;;;;;6278402;22;20003;-91
2024/02/12 10:03:33;;;;;;;37.40;22.52;;;8.50;99.90;;;;;;6278418;22;20127;-91
2024/02/12 10:05:59;;;;;;;40.58;23.52;;;8.40;99.90;;;;;;6304033;22;20388;-91
2024/02/12 10:08:26;;;;;;;40.22;24.25;;;8.50;99.90;;;;;;6277780;22;20349;-89
2024/02/12 10:10:53;;;;;;;35.60;20.25;;;8.50;99.90;;;;;;6305372;22;20008;-91
2024/02/12 10:13:19;;;;;;;38.67;23.02;;;8.60;99.90;;;;;;6277873;22;20025;-91
2024/02/12 10:15:50;;;;;;;39.08;22.52;;;8.50;99.90;;;;;;6279493;22;20007;-91
2024/02/12 10:18:16;;;;;;;36.80;22.17;;;8.60;99.90;;;;;;6303995;22;20011;-91
2024/02/12 10:20:42;;;;;;;39.80;23.33;;;8.60;99.90;;;;;;6278114;22;20052;-91
2024/02/12 10:23:09;;;;;;;35.22;20.30;;;8.50;99.90;;;;;;6304843;22;20335;-91
2024/02/12 10:25:48;;;;;;;34.30;18.65;;;8.50;99.90;;;;;;6303754;22;20022;-89
2024/02/12 10:28:15;;;;;;;38.30;23.85;;;8.40;99.90;;;;;;6277051;22;20015;-91
2024/02/12 10:30:42;;;;;;;31.23;20.75;;;8.40;99.90;;;;;;6305148;22;20431;-90
2024/02/12 10:33:13;;;;;;;37.55;21.40;;;8.40;99.90;;;;;;6305919;22;20027;-91
2024/02/12 10:35:43;;;;;;;39.15;22.00;;;8.30;99.90;;;;;;6277347;22;20405;-93
2024/02/12 10:38:11;;;;;;;36.78;19.83;;;8.40;99.90;;;;;;6305216;22;20407;-93
2024/02/12 10:41:17;;;;;;;35.10;21.35;;;8.30;99.90;;;;;;6302974;22;20003;-94
2024/02/12 10:43:44;;;;;;;33.38;21.65;;;8.30;99.90;;;;;;6303533;22;20034;-92
2024/02/12 10:46:10;;;;;;;30.50;18.90;;;8.30;99.90;;;;;;6329712;22;20161;-90
2024/02/12 10:48:38;;;;;;;31.00;18.02;;;8.40;99.90;;;;;;6303222;22;20094;-90
2024/02/12 10:51:05;;;;;;;30.50;18.02;;;8.40;99.90;;;;;;6277886;22;20007;-91
2024/02/12 10:53:31;;;;;;;32.45;19.02;;;8.40;99.90;;;;;;6277186;22;20015;-91
2024/02/12 10:55:58;;;;;;;29.13;17.50;;;8.40;99.90;;;;;;6277425;22;20101;-91
2024/02/12 10:58:24;;;;;;;29.52;18.02;;;8.50;99.90;;;;;;6276880;22;20018;-90
2024/02/12 11:00:57;;;;;;;29.88;16.85;;;8.50;99.90;;;;;;6302762;22;20102;-90
2024/02/12 11:03:40;;;;;;;28.35;17.13;;;8.50;99.90;;;;;;6277376;22;20058;-91
2024/02/12 11:06:14;;;;;;;28.77;16.10;;;8.40;99.90;;;;;;6276555;22;20435;-90
2024/02/12 11:08:41;;;;;;;26.40;15.15;;;8.50;99.90;;;;;;6303131;22;20007;-90
2024/02/12 11:11:23;;;;;;;24.35;15.32;;;8.50;99.90;;;;;;6302987;22;20011;-91
2024/02/12 11:13:59;;;;;;;24.33;15.07;;;8.80;99.90;;;;;;6276738;22;20015;-90
2024/02/12 11:16:30;;;;;;;26.85;15.90;;;9.00;99.90;;;;;;6299928;22;20051;-90
2024/02/12 11:19:00;;;;;;;23.63;14.07;;;8.80;99.90;;;;;;6277025;22;20072;-90
2024/02/12 11:21:30;;;;;;;21.70;14.95;;;8.70;99.90;;;;;;6275897;22;20007;-90
2024/02/12 11:24:09;;;;;;;20.52;12.63;;;8.60;99.90;;;;;;6276994;22;20007;-89
2024/02/12 11:26:44;;;;;;;24.00;13.38;;;8.70;99.90;;;;;;6302540;22;20003;-90
2024/02/12 11:29:11;;;;;;;20.42;13.43;;;8.70;99.90;;;;;;6302330;22;20003;-90
2024/02/12 11:31:38;;;;;;;20.08;12.23;;;8.60;99.90;;;;;;6302573;22;20019;-89
2024/02/12 11:34:16;;;;;;;22.55;12.50;;;8.70;99.90;;;;;;6302112;22;20003;-88
2024/02/12 11:36:42;;;;;;;15.00;9.48;;;8.80;99.90;;;;;;6276008;22;20018;-87
2024/02/12 11:39:08;;;;;;;18.63;10.35;;;8.80;99.90;;;;;;6276137;22;20374;-89
2024/02/12 11:41:35;;;;;;;16.27;9.55;;;8.90;99.90;;;;;;6300596;22;20022;-89
2024/02/12 11:44:06;;;;;;;16.02;10.73;;;9.00;99.90;;;;;;6276616;22;20696;-89
2024/02/12 11:46:38;;;;;;;20.02;12.18;;;9.10;99.90;;;;;;6301642;22;20203;-88
2024/02/12 11:49:10;;;;;;;16.88;11.02;;;9.60;99.90;;;;;;6302741;22;20067;-89
2024/02/12 11:51:38;;;;;;;16.77;9.20;;;9.70;99.90;;;;;;6302188;22;20011;-88
2024/02/12 11:54:05;;;;;;;12.65;7.88;;;9.90;99.90;;;;;;6276969;22;20007;-88
2024/02/12 11:56:36;;;;;;;9.77;6.93;;;10.10;99.90;;;;;;6276820;22;20003;-88
2024/02/12 11:59:04;;;;;;;10.02;5.97;;;9.90;99.90;;;;;;6274178;22;20015;-89
2024/02/12 12:01:35;;;;;;;10.15;5.72;;;10.00;99.90;;;;;;6277042;22;20304;-89
2024/02/12 12:04:01;;;;;;;6.45;3.28;;;10.50;99.90;;;;;;6276600;22;20003;-89
2024/02/12 12:06:34;;;;;;;10.07;4.20;;;10.80;99.90;;;;;;6276175;22;20022;-89
2024/02/12 12:09:00;;;;;;;8.30;4.57;;;10.30;99.90;;;;;;6277368;22;20447;-89
2024/02/12 12:11:28;;;;;;;9.10;4.50;;;10.20;99.90;;;;;;6302094;22;20064;-89
2024/02/12 12:13:59;;;;;;;8.15;3.97;;;10.00;99.90;;;;;;6302444;22;20010;-89
2024/02/12 12:16:30;;;;;;;8.95;3.13;;;10.20;99.90;;;;;;6302308;22;20003;-90
2024/02/12 12:19:01;;;;;;;5.32;2.47;;;10.50;99.90;;;;;;6277030;22;20007;-90
2024/02/12 12:21:30;;;;;;;6.38;2.58;;;10.90;99.90;;;;;;6298454;22;20074;-89
2024/02/12 12:23:56;;;;;;;4.90;2.97;;;11.10;99.90;;;;;;6277246;22;20003;-89
2024/02/12 12:26:22;;;;;;;4.60;1.85;;;10.50;99.90;;;;;;6275962;22;20003;-90
2024/02/12 12:28:48;;;;;;;5.43;2.42;;;10.40;99.90;;;;;;6276564;22;20015;-90
2024/02/12 12:31:14;;;;;;;6.35;3.13;;;10.20;99.90;;;;;;6302344;22;20466;-90
2024/02/12 12:33:42;;;;;;;6.93;3.78;;;10.50;99.90;;;;;;6302661;22;20011;-89
2024/02/12 12:36:11;;;;;;;6.18;2.58;;;10.30;99.90;;;;;;6276807;22;20007;-89
2024/02/12 12:38:40;;;;;;;6.38;2.47;;;10.40;99.90;;;;;;6302744;22;20110;-90
2024/02/12 12:41:07;;;;;;;5.07;2.40;;;10.50;99.90;;;;;;6276981;22;20050;-90
2024/02/12 12:43:37;;;;;;;5.68;2.25;;;10.40;99.90;;;;;;6276991;22;20011;-91
2024/02/12 12:46:06;;;;;;;7.50;2.80;;;10.70;99.90;;;;;;6303652;22;20057;-91
2024/02/12 12:48:32;;;;;;;6.80;2.85;;;10.70;99.90;;;;;;6302008;22;20061;-91
2024/02/12 12:50:58;;;;;;;5.18;2.55;;;10.50;99.90;;;;;;6302018;22;20038;-90
2024/02/12 12:53:24;;;;;;;5.80;1.90;;;10.80;99.90;;;;;;6302086;22;20007;-91
2024/02/12 12:55:49;;;;;;;3.92;1.50;;;11.00;99.90;;;;;;6302638;22;20010;-92
2024/02/12 12:58:18;;;;;;;6.45;2.55;;;11.00;99.90;;;;;;6301669;22;20014;-92
2024/02/12 13:00:45;;;;;;;4.95;2.55;;;10.80;99.90;;;;;;6273998;22;20003;-92
2024/02/12 13:03:11;;;;;;;7.97;2.20;;;10.50;99.90;;;;;;6275730;22;20098;-92